sensor_id;sensor_type;location;lat;lon;timestamp;P1;durP1;ratioP1;P2;durP2;ratioP2
68310;SDS011;55157;51.036;17.058;2022-10-12T00:00:47;58.70;;;28.13;;
68310;SDS011;55157;51.036;17.058;2022-10-12T00:03:12;44.30;;;27.73;;
68310;SDS011;55157;51.036;17.058;2022-10-12T00:05:37;42.30;;;24.77;;
68310;SDS011;55157;51.036;17.058;2022-10-12T00:08:02;54.90;;;27.02;;
68310;SDS011;55157;51.036;17.058;2022-10-12T00:10:28;49.95;;;25.65;;
68310;SDS011;55157;51.036;17.058;2022-10-12T00:12:53;47.08;;;24.33;;
68310;SDS011;55157;51.036;17.058;2022-10-12T00:15:19;49.25;;;24.77;;
68310;SDS011;55157;51.036;17.058;2022-10-12T00:17:45;44.58;;;23.67;;
68310;SDS011;55157;51.036;17.058;2022-10-12T00:20:10;44.70;;;22.25;;
68310;SDS011;55157;51.036;17.058;2022-10-12T00:22:36;49.55;;;26.52;;
68310;SDS011;55157;51.036;17.058;2022-10-12T00:25:01;50.67;;;27.35;;
68310;SDS011;55157;51.036;17.058;2022-10-12T00:27:26;60.58;;;31.33;;
68310;SDS011;55157;51.036;17.058;2022-10-12T00:29:51;47.97;;;27.15;;
68310;SDS011;55157;51.036;17.058;2022-10-12T00:32:18;97.43;;;40.90;;
68310;SDS011;55157;51.036;17.058;2022-10-12T00:34:43;183.38;;;70.43;;
68310;SDS011;55157;51.036;17.058;2022-10-12T00:37:08;177.38;;;70.15;;
68310;SDS011;55157;51.036;17.058;2022-10-12T00:39:34;163.82;;;66.07;;
68310;SDS011;55157;51.036;17.058;2022-10-12T00:41:59;97.70;;;44.20;;
68310;SDS011;55157;51.036;17.058;2022-10-12T00:44:35;63.15;;;33.42;;
68310;SDS011;55157;51.036;17.058;2022-10-12T00:47:02;53.13;;;28.73;;
68310;SDS011;55157;51.036;17.058;2022-10-12T00:49:30;60.65;;;30.33;;
68310;SDS011;55157;51.036;17.058;2022-10-12T00:51:56;56.95;;;27.55;;
68310;SDS011;55157;51.036;17.058;2022-10-12T00:54:23;109.07;;;43.97;;
68310;SDS011;55157;51.036;17.058;2022-10-12T00:56:49;161.70;;;70.07;;
68310;SDS011;55157;51.036;17.058;2022-10-12T00:59:17;115.00;;;57.13;;
68310;SDS011;55157;51.036;17.058;2022-10-12T01:01:43;137.73;;;59.13;;
68310;SDS011;55157;51.036;17.058;2022-10-12T01:04:09;129.75;;;54.42;;
68310;SDS011;55157;51.036;17.058;2022-10-12T01:06:35;125.43;;;55.28;;
68310;SDS011;55157;51.036;17.058;2022-10-12T01:09:01;131.27;;;55.80;;
68310;SDS011;55157;51.036;17.058;2022-10-12T01:11:26;120.97;;;53.03;;
68310;SDS011;55157;51.036;17.058;2022-10-12T01:13:52;116.97;;;52.58;;
68310;SDS011;55157;51.036;17.058;2022-10-12T01:16:17;126.13;;;52.13;;
68310;SDS011;55157;51.036;17.058;2022-10-12T01:18:44;137.32;;;55.08;;
68310;SDS011;55157;51.036;17.058;2022-10-12T01:21:14;122.53;;;49.20;;
68310;SDS011;55157;51.036;17.058;2022-10-12T01:29:16;113.32;;;47.15;;
68310;SDS011;55157;51.036;17.058;2022-10-12T01:31:48;112.47;;;48.60;;
68310;SDS011;55157;51.036;17.058;2022-10-12T01:34:16;101.57;;;46.00;;
68310;SDS011;55157;51.036;17.058;2022-10-12T01:36:44;114.75;;;48.47;;
68310;SDS011;55157;51.036;17.058;2022-10-12T01:39:11;105.38;;;46.03;;
68310;SDS011;55157;51.036;17.058;2022-10-12T01:41:39;97.35;;;43.80;;
68310;SDS011;55157;51.036;17.058;2022-10-12T01:44:08;105.05;;;47.95;;
68310;SDS011;55157;51.036;17.058;2022-10-12T01:46:42;97.32;;;43.85;;
68310;SDS011;55157;51.036;17.058;2022-10-12T01:49:09;106.53;;;45.75;;
68310;SDS011;55157;51.036;17.058;2022-10-12T01:51:39;96.00;;;43.88;;
68310;SDS011;55157;51.036;17.058;2022-10-12T01:54:09;100.53;;;42.45;;
68310;SDS011;55157;51.036;17.058;2022-10-12T01:56:39;72.30;;;32.38;;
68310;SDS011;55157;51.036;17.058;2022-10-12T01:59:07;76.72;;;31.85;;
68310;SDS011;55157;51.036;17.058;2022-10-12T02:01:35;55.47;;;25.80;;
68310;SDS011;55157;51.036;17.058;2022-10-12T02:04:07;50.92;;;25.38;;
68310;SDS011;55157;51.036;17.058;2022-10-12T02:06:36;51.17;;;25.45;;
68310;SDS011;55157;51.036;17.058;2022-10-12T02:09:03;54.80;;;23.90;;
68310;SDS011;55157;51.036;17.058;2022-10-12T02:11:31;59.40;;;26.90;;
68310;SDS011;55157;51.036;17.058;2022-10-12T02:14:00;48.97;;;25.58;;
68310;SDS011;55157;51.036;17.058;2022-10-12T02:16:27;47.92;;;23.65;;
68310;SDS011;55157;51.036;17.058;2022-10-12T02:18:53;52.63;;;23.30;;
68310;SDS011;55157;51.036;17.058;2022-10-12T02:21:20;52.42;;;22.38;;
68310;SDS011;55157;51.036;17.058;2022-10-12T02:23:48;41.20;;;21.13;;
68310;SDS011;55157;51.036;17.058;2022-10-12T02:26:14;45.97;;;21.80;;
68310;SDS011;55157;51.036;17.058;2022-10-12T02:28:39;42.13;;;20.10;;
68310;SDS011;55157;51.036;17.058;2022-10-12T02:31:09;42.55;;;20.33;;
68310;SDS011;55157;51.036;17.058;2022-10-12T02:33:36;40.97;;;20.52;;
68310;SDS011;55157;51.036;17.058;2022-10-12T02:36:04;38.42;;;20.13;;
68310;SDS011;55157;51.036;17.058;2022-10-12T02:38:31;42.83;;;22.38;;
68310;SDS011;55157;51.036;17.058;2022-10-12T02:40:59;46.38;;;21.60;;
68310;SDS011;55157;51.036;17.058;2022-10-12T02:43:26;38.08;;;19.35;;
68310;SDS011;55157;51.036;17.058;2022-10-12T02:45:53;39.97;;;19.75;;
68310;SDS011;55157;51.036;17.058;2022-10-12T02:48:20;36.15;;;17.17;;
68310;SDS011;55157;51.036;17.058;2022-10-12T02:50:46;44.30;;;19.15;;
68310;SDS011;55157;51.036;17.058;2022-10-12T02:53:13;44.80;;;20.63;;
68310;SDS011;55157;51.036;17.058;2022-10-12T02:55:38;42.38;;;20.38;;
68310;SDS011;55157;51.036;17.058;2022-10-12T02:58:12;40.65;;;22.25;;
68310;SDS011;55157;51.036;17.058;2022-10-12T03:00:37;44.03;;;20.20;;
68310;SDS011;55157;51.036;17.058;2022-10-12T03:03:03;34.95;;;18.33;;
68310;SDS011;55157;51.036;17.058;2022-10-12T03:05:28;32.67;;;17.33;;
68310;SDS011;55157;51.036;17.058;2022-10-12T03:07:53;38.17;;;18.88;;
68310;SDS011;55157;51.036;17.058;2022-10-12T03:10:18;48.65;;;21.08;;
68310;SDS011;55157;51.036;17.058;2022-10-12T03:12:44;45.75;;;20.35;;
68310;SDS011;55157;51.036;17.058;2022-10-12T03:15:10;41.92;;;20.17;;
68310;SDS011;55157;51.036;17.058;2022-10-12T03:17:36;41.45;;;20.13;;
68310;SDS011;55157;51.036;17.058;2022-10-12T03:20:01;36.63;;;19.63;;
68310;SDS011;55157;51.036;17.058;2022-10-12T03:22:26;36.88;;;18.23;;
68310;SDS011;55157;51.036;17.058;2022-10-12T03:24:51;41.78;;;18.65;;
68310;SDS011;55157;51.036;17.058;2022-10-12T03:27:17;34.30;;;19.10;;
68310;SDS011;55157;51.036;17.058;2022-10-12T03:29:42;34.90;;;17.85;;
68310;SDS011;55157;51.036;17.058;2022-10-12T03:32:08;43.47;;;21.33;;
68310;SDS011;55157;51.036;17.058;2022-10-12T03:34:34;37.42;;;18.85;;
68310;SDS011;55157;51.036;17.058;2022-10-12T03:36:59;36.92;;;18.40;;
68310;SDS011;55157;51.036;17.058;2022-10-12T03:39:24;38.17;;;18.52;;
68310;SDS011;55157;51.036;17.058;2022-10-12T03:41:49;36.22;;;18.42;;
68310;SDS011;55157;51.036;17.058;2022-10-12T03:44:14;31.77;;;18.48;;
68310;SDS011;55157;51.036;17.058;2022-10-12T03:46:40;41.28;;;17.58;;
68310;SDS011;55157;51.036;17.058;2022-10-12T03:49:06;44.97;;;21.60;;
68310;SDS011;55157;51.036;17.058;2022-10-12T03:51:32;42.92;;;19.27;;
68310;SDS011;55157;51.036;17.058;2022-10-12T03:53:57;52.17;;;27.90;;
68310;SDS011;55157;51.036;17.058;2022-10-12T03:56:22;61.05;;;33.38;;
68310;SDS011;55157;51.036;17.058;2022-10-12T03:58:47;56.78;;;30.13;;
68310;SDS011;55157;51.036;17.058;2022-10-12T04:01:13;55.50;;;26.67;;
68310;SDS011;55157;51.036;17.058;2022-10-12T04:03:38;48.72;;;24.50;;
68310;SDS011;55157;51.036;17.058;2022-10-12T04:06:05;46.83;;;20.98;;
68310;SDS011;55157;51.036;17.058;2022-10-12T04:08:30;41.55;;;21.55;;
68310;SDS011;55157;51.036;17.058;2022-10-12T04:10:55;43.55;;;20.38;;
68310;SDS011;55157;51.036;17.058;2022-10-12T04:13:20;40.05;;;20.27;;
68310;SDS011;55157;51.036;17.058;2022-10-12T04:15:46;37.10;;;19.27;;
68310;SDS011;55157;51.036;17.058;2022-10-12T04:18:11;37.25;;;20.38;;
68310;SDS011;55157;51.036;17.058;2022-10-12T04:20:36;42.83;;;20.35;;
68310;SDS011;55157;51.036;17.058;2022-10-12T04:23:03;30.13;;;18.42;;
68310;SDS011;55157;51.036;17.058;2022-10-12T04:25:28;37.20;;;17.92;;
68310;SDS011;55157;51.036;17.058;2022-10-12T04:27:54;41.13;;;16.90;;
68310;SDS011;55157;51.036;17.058;2022-10-12T04:30:19;29.83;;;16.85;;
68310;SDS011;55157;51.036;17.058;2022-10-12T04:32:44;31.90;;;15.55;;
68310;SDS011;55157;51.036;17.058;2022-10-12T04:35:09;31.45;;;15.85;;
68310;SDS011;55157;51.036;17.058;2022-10-12T04:37:35;40.20;;;18.05;;
68310;SDS011;55157;51.036;17.058;2022-10-12T04:40:01;33.58;;;15.98;;
68310;SDS011;55157;51.036;17.058;2022-10-12T04:42:27;37.05;;;17.02;;
68310;SDS011;55157;51.036;17.058;2022-10-12T04:44:52;32.53;;;14.70;;
68310;SDS011;55157;51.036;17.058;2022-10-12T04:47:17;34.00;;;15.80;;
68310;SDS011;55157;51.036;17.058;2022-10-12T04:49:43;29.45;;;16.98;;
68310;SDS011;55157;51.036;17.058;2022-10-12T04:52:08;28.33;;;14.93;;
68310;SDS011;55157;51.036;17.058;2022-10-12T04:54:33;29.60;;;15.38;;
68310;SDS011;55157;51.036;17.058;2022-10-12T04:57:00;35.10;;;14.10;;
68310;SDS011;55157;51.036;17.058;2022-10-12T04:59:25;33.22;;;14.25;;
68310;SDS011;55157;51.036;17.058;2022-10-12T05:01:50;29.30;;;13.48;;
68310;SDS011;55157;51.036;17.058;2022-10-12T05:04:15;29.15;;;16.02;;
68310;SDS011;55157;51.036;17.058;2022-10-12T05:06:41;34.33;;;16.30;;
68310;SDS011;55157;51.036;17.058;2022-10-12T05:09:06;27.83;;;15.38;;
68310;SDS011;55157;51.036;17.058;2022-10-12T05:11:31;38.33;;;14.60;;
68310;SDS011;55157;51.036;17.058;2022-10-12T05:13:58;35.03;;;14.25;;
68310;SDS011;55157;51.036;17.058;2022-10-12T05:16:23;29.95;;;13.75;;
68310;SDS011;55157;51.036;17.058;2022-10-12T05:18:49;38.13;;;16.13;;
68310;SDS011;55157;51.036;17.058;2022-10-12T05:21:14;29.58;;;12.50;;
68310;SDS011;55157;51.036;17.058;2022-10-12T05:23:39;29.30;;;15.70;;
68310;SDS011;55157;51.036;17.058;2022-10-12T05:26:04;37.90;;;16.02;;
68310;SDS011;55157;51.036;17.058;2022-10-12T05:28:30;39.38;;;15.07;;
68310;SDS011;55157;51.036;17.058;2022-10-12T05:30:56;40.15;;;16.42;;
68310;SDS011;55157;51.036;17.058;2022-10-12T05:33:21;46.63;;;16.65;;
68310;SDS011;55157;51.036;17.058;2022-10-12T05:35:47;38.25;;;16.23;;
68310;SDS011;55157;51.036;17.058;2022-10-12T05:38:12;49.05;;;16.35;;
68310;SDS011;55157;51.036;17.058;2022-10-12T05:40:38;41.17;;;17.70;;
68310;SDS011;55157;51.036;17.058;2022-10-12T05:43:03;46.95;;;17.58;;
68310;SDS011;55157;51.036;17.058;2022-10-12T05:45:28;38.28;;;15.30;;
68310;SDS011;55157;51.036;17.058;2022-10-12T05:47:55;39.63;;;17.10;;
68310;SDS011;55157;51.036;17.058;2022-10-12T05:50:20;39.10;;;15.70;;
68310;SDS011;55157;51.036;17.058;2022-10-12T05:52:45;39.70;;;16.63;;
68310;SDS011;55157;51.036;17.058;2022-10-12T05:55:10;38.65;;;15.70;;
68310;SDS011;55157;51.036;17.058;2022-10-12T05:57:36;43.03;;;16.55;;
68310;SDS011;55157;51.036;17.058;2022-10-12T06:00:01;36.65;;;15.73;;
68310;SDS011;55157;51.036;17.058;2022-10-12T06:02:26;43.20;;;14.35;;
68310;SDS011;55157;51.036;17.058;2022-10-12T06:04:53;34.60;;;15.90;;
68310;SDS011;55157;51.036;17.058;2022-10-12T06:07:18;37.88;;;15.13;;
68310;SDS011;55157;51.036;17.058;2022-10-12T06:09:43;45.53;;;16.08;;
68310;SDS011;55157;51.036;17.058;2022-10-12T06:12:09;41.08;;;15.45;;
68310;SDS011;55157;51.036;17.058;2022-10-12T06:14:34;47.95;;;18.75;;
68310;SDS011;55157;51.036;17.058;2022-10-12T06:17:00;40.50;;;16.30;;
68310;SDS011;55157;51.036;17.058;2022-10-12T06:19:25;46.95;;;17.60;;
68310;SDS011;55157;51.036;17.058;2022-10-12T06:21:51;39.40;;;17.17;;
68310;SDS011;55157;51.036;17.058;2022-10-12T06:24:17;37.65;;;17.90;;
68310;SDS011;55157;51.036;17.058;2022-10-12T06:26:42;38.70;;;16.25;;
68310;SDS011;55157;51.036;17.058;2022-10-12T06:29:07;37.97;;;17.23;;
68310;SDS011;55157;51.036;17.058;2022-10-12T06:31:33;34.97;;;17.55;;
68310;SDS011;55157;51.036;17.058;2022-10-12T06:33:58;42.92;;;16.75;;
68310;SDS011;55157;51.036;17.058;2022-10-12T06:36:23;33.55;;;15.85;;
68310;SDS011;55157;51.036;17.058;2022-10-12T06:38:50;33.47;;;17.38;;
68310;SDS011;55157;51.036;17.058;2022-10-12T06:41:15;43.38;;;17.08;;
68310;SDS011;55157;51.036;17.058;2022-10-12T06:43:40;35.33;;;16.15;;
68310;SDS011;55157;51.036;17.058;2022-10-12T06:46:06;36.80;;;15.55;;
68310;SDS011;55157;51.036;17.058;2022-10-12T06:48:31;38.88;;;16.20;;
68310;SDS011;55157;51.036;17.058;2022-10-12T06:50:56;36.05;;;16.13;;
68310;SDS011;55157;51.036;17.058;2022-10-12T06:53:21;41.55;;;16.52;;
68310;SDS011;55157;51.036;17.058;2022-10-12T06:55:48;40.22;;;17.60;;
68310;SDS011;55157;51.036;17.058;2022-10-12T06:58:13;42.97;;;17.73;;
68310;SDS011;55157;51.036;17.058;2022-10-12T07:00:39;43.45;;;17.58;;
68310;SDS011;55157;51.036;17.058;2022-10-12T07:03:04;34.50;;;16.30;;
68310;SDS011;55157;51.036;17.058;2022-10-12T07:05:29;42.63;;;16.63;;
68310;SDS011;55157;51.036;17.058;2022-10-12T07:07:54;43.97;;;17.50;;
68310;SDS011;55157;51.036;17.058;2022-10-12T07:10:20;47.22;;;17.65;;
68310;SDS011;55157;51.036;17.058;2022-10-12T07:12:46;39.25;;;17.20;;
68310;SDS011;55157;51.036;17.058;2022-10-12T07:15:12;44.17;;;18.08;;
68310;SDS011;55157;51.036;17.058;2022-10-12T07:17:37;46.00;;;18.25;;
68310;SDS011;55157;51.036;17.058;2022-10-12T07:20:02;40.35;;;17.17;;
68310;SDS011;55157;51.036;17.058;2022-10-12T07:22:28;48.63;;;17.13;;
68310;SDS011;55157;51.036;17.058;2022-10-12T07:24:53;42.78;;;18.10;;
68310;SDS011;55157;51.036;17.058;2022-10-12T07:27:18;47.83;;;23.95;;
68310;SDS011;55157;51.036;17.058;2022-10-12T07:29:45;47.95;;;19.73;;
68310;SDS011;55157;51.036;17.058;2022-10-12T07:32:10;42.15;;;18.02;;
68310;SDS011;55157;51.036;17.058;2022-10-12T07:34:36;44.90;;;20.83;;
68310;SDS011;55157;51.036;17.058;2022-10-12T07:37:01;40.00;;;19.02;;
68310;SDS011;55157;51.036;17.058;2022-10-12T07:39:27;49.53;;;20.48;;
68310;SDS011;55157;51.036;17.058;2022-10-12T07:41:52;57.35;;;26.02;;
68310;SDS011;55157;51.036;17.058;2022-10-12T07:44:17;47.67;;;21.15;;
68310;SDS011;55157;51.036;17.058;2022-10-12T07:46:45;45.47;;;19.48;;
68310;SDS011;55157;51.036;17.058;2022-10-12T07:49:10;45.80;;;17.38;;
68310;SDS011;55157;51.036;17.058;2022-10-12T07:51:36;42.90;;;18.10;;
68310;SDS011;55157;51.036;17.058;2022-10-12T07:54:01;35.85;;;17.08;;
68310;SDS011;55157;51.036;17.058;2022-10-12T07:56:26;45.72;;;20.08;;
68310;SDS011;55157;51.036;17.058;2022-10-12T07:58:52;47.70;;;20.35;;
68310;SDS011;55157;51.036;17.058;2022-10-12T08:01:18;44.78;;;19.95;;
68310;SDS011;55157;51.036;17.058;2022-10-12T08:03:45;41.00;;;17.40;;
68310;SDS011;55157;51.036;17.058;2022-10-12T08:06:11;37.30;;;17.45;;
68310;SDS011;55157;51.036;17.058;2022-10-12T08:08:36;43.35;;;19.58;;
68310;SDS011;55157;51.036;17.058;2022-10-12T08:11:02;45.22;;;19.33;;
68310;SDS011;55157;51.036;17.058;2022-10-12T08:13:27;36.50;;;17.13;;
68310;SDS011;55157;51.036;17.058;2022-10-12T08:15:53;40.05;;;16.85;;
68310;SDS011;55157;51.036;17.058;2022-10-12T08:18:18;38.45;;;17.70;;
68310;SDS011;55157;51.036;17.058;2022-10-12T08:20:45;33.60;;;14.50;;
68310;SDS011;55157;51.036;17.058;2022-10-12T08:23:10;26.42;;;15.80;;
68310;SDS011;55157;51.036;17.058;2022-10-12T08:25:35;34.25;;;15.50;;
68310;SDS011;55157;51.036;17.058;2022-10-12T08:28:00;33.17;;;14.68;;
68310;SDS011;55157;51.036;17.058;2022-10-12T08:30:25;24.05;;;14.63;;
68310;SDS011;55157;51.036;17.058;2022-10-12T08:32:51;33.03;;;17.05;;
68310;SDS011;55157;51.036;17.058;2022-10-12T08:35:16;48.10;;;16.15;;
68310;SDS011;55157;51.036;17.058;2022-10-12T08:37:43;35.65;;;15.85;;
68310;SDS011;55157;51.036;17.058;2022-10-12T08:40:09;28.20;;;13.65;;
68310;SDS011;55157;51.036;17.058;2022-10-12T08:42:39;32.17;;;14.40;;
68310;SDS011;55157;51.036;17.058;2022-10-12T08:45:12;31.80;;;13.55;;
68310;SDS011;55157;51.036;17.058;2022-10-12T08:47:44;27.83;;;13.70;;
68310;SDS011;55157;51.036;17.058;2022-10-12T08:50:13;30.83;;;13.77;;
68310;SDS011;55157;51.036;17.058;2022-10-12T08:52:41;29.90;;;14.18;;
68310;SDS011;55157;51.036;17.058;2022-10-12T08:55:18;33.20;;;13.38;;
68310;SDS011;55157;51.036;17.058;2022-10-12T08:57:44;25.95;;;13.20;;
68310;SDS011;55157;51.036;17.058;2022-10-12T09:00:11;29.52;;;13.10;;
68310;SDS011;55157;51.036;17.058;2022-10-12T09:02:43;28.20;;;13.57;;
68310;SDS011;55157;51.036;17.058;2022-10-12T09:05:10;37.45;;;13.15;;
68310;SDS011;55157;51.036;17.058;2022-10-12T09:07:37;29.17;;;12.30;;
68310;SDS011;55157;51.036;17.058;2022-10-12T09:10:06;26.77;;;13.07;;
68310;SDS011;55157;51.036;17.058;2022-10-12T09:12:39;25.83;;;13.68;;
68310;SDS011;55157;51.036;17.058;2022-10-12T09:15:08;25.08;;;12.55;;
68310;SDS011;55157;51.036;17.058;2022-10-12T09:17:35;24.40;;;12.43;;
68310;SDS011;55157;51.036;17.058;2022-10-12T09:20:03;26.40;;;12.57;;
68310;SDS011;55157;51.036;17.058;2022-10-12T09:22:30;33.65;;;12.48;;
68310;SDS011;55157;51.036;17.058;2022-10-12T09:24:57;32.10;;;11.02;;
68310;SDS011;55157;51.036;17.058;2022-10-12T09:27:23;29.50;;;10.18;;
68310;SDS011;55157;51.036;17.058;2022-10-12T09:29:53;27.63;;;11.80;;
68310;SDS011;55157;51.036;17.058;2022-10-12T09:32:25;26.33;;;10.52;;
68310;SDS011;55157;51.036;17.058;2022-10-12T09:34:53;23.98;;;10.00;;
68310;SDS011;55157;51.036;17.058;2022-10-12T09:37:20;18.83;;;8.65;;
68310;SDS011;55157;51.036;17.058;2022-10-12T09:39:45;16.77;;;8.15;;
68310;SDS011;55157;51.036;17.058;2022-10-12T09:42:11;25.95;;;9.88;;
68310;SDS011;55157;51.036;17.058;2022-10-12T09:44:36;18.48;;;9.50;;
68310;SDS011;55157;51.036;17.058;2022-10-12T09:47:04;19.45;;;9.45;;
68310;SDS011;55157;51.036;17.058;2022-10-12T09:49:39;21.83;;;8.52;;
68310;SDS011;55157;51.036;17.058;2022-10-12T09:52:05;22.92;;;8.25;;
68310;SDS011;55157;51.036;17.058;2022-10-12T09:54:30;17.45;;;9.13;;
68310;SDS011;55157;51.036;17.058;2022-10-12T09:56:56;24.48;;;8.50;;
68310;SDS011;55157;51.036;17.058;2022-10-12T09:59:25;24.65;;;8.27;;
68310;SDS011;55157;51.036;17.058;2022-10-12T10:01:57;19.02;;;7.35;;
68310;SDS011;55157;51.036;17.058;2022-10-12T10:04:24;15.75;;;6.93;;
68310;SDS011;55157;51.036;17.058;2022-10-12T10:06:50;18.90;;;7.45;;
68310;SDS011;55157;51.036;17.058;2022-10-12T10:09:28;20.27;;;6.57;;
68310;SDS011;55157;51.036;17.058;2022-10-12T10:11:54;16.92;;;6.50;;
68310;SDS011;55157;51.036;17.058;2022-10-12T10:14:19;17.67;;;6.07;;
68310;SDS011;55157;51.036;17.058;2022-10-12T10:16:46;14.80;;;5.70;;
68310;SDS011;55157;51.036;17.058;2022-10-12T10:19:13;13.60;;;6.50;;
68310;SDS011;55157;51.036;17.058;2022-10-12T10:21:40;20.42;;;7.70;;
68310;SDS011;55157;51.036;17.058;2022-10-12T10:24:06;20.35;;;7.15;;
68310;SDS011;55157;51.036;17.058;2022-10-12T10:29:16;19.10;;;6.57;;
68310;SDS011;55157;51.036;17.058;2022-10-12T10:31:47;21.02;;;7.00;;
68310;SDS011;55157;51.036;17.058;2022-10-12T10:34:15;18.05;;;7.13;;
68310;SDS011;55157;51.036;17.058;2022-10-12T10:36:45;16.77;;;6.07;;
68310;SDS011;55157;51.036;17.058;2022-10-12T10:39:15;15.20;;;5.57;;
68310;SDS011;55157;51.036;17.058;2022-10-12T10:41:41;20.60;;;7.43;;
68310;SDS011;55157;51.036;17.058;2022-10-12T10:44:16;15.93;;;5.22;;
68310;SDS011;55157;51.036;17.058;2022-10-12T10:46:44;20.88;;;6.78;;
68310;SDS011;55157;51.036;17.058;2022-10-12T10:49:11;18.90;;;4.97;;
68310;SDS011;55157;51.036;17.058;2022-10-12T10:51:47;23.88;;;6.15;;
68310;SDS011;55157;51.036;17.058;2022-10-12T10:54:13;20.08;;;5.07;;
68310;SDS011;55157;51.036;17.058;2022-10-12T10:56:39;14.13;;;4.80;;
68310;SDS011;55157;51.036;17.058;2022-10-12T10:59:08;17.83;;;6.13;;
68310;SDS011;55157;51.036;17.058;2022-10-12T11:01:36;14.07;;;5.28;;
68310;SDS011;55157;51.036;17.058;2022-10-12T11:04:05;23.92;;;6.25;;
68310;SDS011;55157;51.036;17.058;2022-10-12T11:06:34;18.30;;;5.40;;
68310;SDS011;55157;51.036;17.058;2022-10-12T11:09:03;19.70;;;5.18;;
68310;SDS011;55157;51.036;17.058;2022-10-12T11:11:30;10.10;;;5.03;;
68310;SDS011;55157;51.036;17.058;2022-10-12T11:13:57;18.25;;;6.03;;
68310;SDS011;55157;51.036;17.058;2022-10-12T11:16:26;15.65;;;4.32;;
68310;SDS011;55157;51.036;17.058;2022-10-12T11:18:52;20.90;;;3.90;;
68310;SDS011;55157;51.036;17.058;2022-10-12T11:21:19;15.05;;;3.42;;
68310;SDS011;55157;51.036;17.058;2022-10-12T11:23:47;13.10;;;3.88;;
68310;SDS011;55157;51.036;17.058;2022-10-12T11:26:18;17.10;;;4.13;;
68310;SDS011;55157;51.036;17.058;2022-10-12T11:28:45;12.30;;;3.58;;
68310;SDS011;55157;51.036;17.058;2022-10-12T11:31:14;13.10;;;3.25;;
68310;SDS011;55157;51.036;17.058;2022-10-12T11:33:40;11.68;;;2.90;;
68310;SDS011;55157;51.036;17.058;2022-10-12T11:36:06;8.40;;;2.47;;
68310;SDS011;55157;51.036;17.058;2022-10-12T11:38:34;11.07;;;3.13;;
68310;SDS011;55157;51.036;17.058;2022-10-12T11:41:02;12.43;;;3.22;;
68310;SDS011;55157;51.036;17.058;2022-10-12T11:43:33;10.65;;;3.15;;
68310;SDS011;55157;51.036;17.058;2022-10-12T11:46:01;11.90;;;3.20;;
68310;SDS011;55157;51.036;17.058;2022-10-12T11:48:26;10.77;;;2.85;;
68310;SDS011;55157;51.036;17.058;2022-10-12T11:50:52;14.70;;;3.22;;
68310;SDS011;55157;51.036;17.058;2022-10-12T11:53:20;13.07;;;3.70;;
68310;SDS011;55157;51.036;17.058;2022-10-12T11:55:53;18.60;;;3.05;;
68310;SDS011;55157;51.036;17.058;2022-10-12T11:58:21;18.95;;;4.22;;
68310;SDS011;55157;51.036;17.058;2022-10-12T12:00:56;11.25;;;3.38;;
68310;SDS011;55157;51.036;17.058;2022-10-12T12:03:27;10.82;;;4.07;;
68310;SDS011;55157;51.036;17.058;2022-10-12T12:05:54;13.68;;;3.70;;
68310;SDS011;55157;51.036;17.058;2022-10-12T12:08:20;12.93;;;3.50;;
68310;SDS011;55157;51.036;17.058;2022-10-12T12:10:49;10.80;;;3.17;;
68310;SDS011;55157;51.036;17.058;2022-10-12T12:13:16;11.73;;;3.63;;
68310;SDS011;55157;51.036;17.058;2022-10-12T12:15:42;10.50;;;3.67;;
68310;SDS011;55157;51.036;17.058;2022-10-12T12:18:29;13.80;;;4.20;;
68310;SDS011;55157;51.036;17.058;2022-10-12T12:21:01;13.77;;;3.40;;
68310;SDS011;55157;51.036;17.058;2022-10-12T12:23:36;7.22;;;2.70;;
68310;SDS011;55157;51.036;17.058;2022-10-12T12:26:06;12.65;;;3.45;;
68310;SDS011;55157;51.036;17.058;2022-10-12T12:28:36;15.68;;;3.55;;
68310;SDS011;55157;51.036;17.058;2022-10-12T12:31:03;10.48;;;3.03;;
68310;SDS011;55157;51.036;17.058;2022-10-12T12:33:31;10.32;;;3.17;;
68310;SDS011;55157;51.036;17.058;2022-10-12T12:35:57;18.70;;;3.92;;
68310;SDS011;55157;51.036;17.058;2022-10-12T12:38:24;15.60;;;3.20;;
68310;SDS011;55157;51.036;17.058;2022-10-12T12:40:54;13.43;;;3.63;;
68310;SDS011;55157;51.036;17.058;2022-10-12T12:43:21;11.52;;;3.40;;
68310;SDS011;55157;51.036;17.058;2022-10-12T12:45:59;9.73;;;3.42;;
68310;SDS011;55157;51.036;17.058;2022-10-12T12:51:10;11.57;;;3.55;;
68310;SDS011;55157;51.036;17.058;2022-10-12T12:53:36;21.27;;;4.03;;
68310;SDS011;55157;51.036;17.058;2022-10-12T12:56:03;13.90;;;3.80;;
68310;SDS011;55157;51.036;17.058;2022-10-12T12:58:32;10.57;;;3.25;;
68310;SDS011;55157;51.036;17.058;2022-10-12T13:01:06;17.30;;;4.32;;
68310;SDS011;55157;51.036;17.058;2022-10-12T13:06:29;12.60;;;3.45;;
68310;SDS011;55157;51.036;17.058;2022-10-12T13:17:08;14.25;;;3.63;;
68310;SDS011;55157;51.036;17.058;2022-10-12T13:19:36;19.90;;;3.75;;
68310;SDS011;55157;51.036;17.058;2022-10-12T13:22:03;19.52;;;4.15;;
68310;SDS011;55157;51.036;17.058;2022-10-12T13:24:30;18.48;;;4.20;;
68310;SDS011;55157;51.036;17.058;2022-10-12T13:26:59;17.63;;;4.10;;
68310;SDS011;55157;51.036;17.058;2022-10-12T13:29:28;17.60;;;3.83;;
68310;SDS011;55157;51.036;17.058;2022-10-12T13:31:57;10.07;;;2.50;;
68310;SDS011;55157;51.036;17.058;2022-10-12T13:34:25;12.07;;;3.08;;
68310;SDS011;55157;51.036;17.058;2022-10-12T13:36:53;10.38;;;3.55;;
68310;SDS011;55157;51.036;17.058;2022-10-12T13:39:22;13.45;;;3.03;;
68310;SDS011;55157;51.036;17.058;2022-10-12T13:41:49;11.70;;;3.33;;
68310;SDS011;55157;51.036;17.058;2022-10-12T13:44:18;15.45;;;3.20;;
68310;SDS011;55157;51.036;17.058;2022-10-12T13:46:45;13.45;;;3.15;;
68310;SDS011;55157;51.036;17.058;2022-10-12T13:49:12;16.55;;;3.13;;
68310;SDS011;55157;51.036;17.058;2022-10-12T13:51:37;9.70;;;2.90;;
68310;SDS011;55157;51.036;17.058;2022-10-12T13:54:11;20.70;;;4.00;;
68310;SDS011;55157;51.036;17.058;2022-10-12T13:56:39;8.98;;;2.67;;
68310;SDS011;55157;51.036;17.058;2022-10-12T13:59:04;7.30;;;2.67;;
68310;SDS011;55157;51.036;17.058;2022-10-12T14:01:30;12.85;;;2.83;;
68310;SDS011;55157;51.036;17.058;2022-10-12T14:04:01;11.60;;;2.90;;
68310;SDS011;55157;51.036;17.058;2022-10-12T14:06:27;10.88;;;2.97;;
68310;SDS011;55157;51.036;17.058;2022-10-12T14:08:53;11.88;;;2.97;;
68310;SDS011;55157;51.036;17.058;2022-10-12T14:11:19;9.45;;;3.35;;
68310;SDS011;55157;51.036;17.058;2022-10-12T14:13:46;21.55;;;3.30;;
68310;SDS011;55157;51.036;17.058;2022-10-12T14:16:12;15.15;;;3.38;;
68310;SDS011;55157;51.036;17.058;2022-10-12T14:18:38;13.13;;;3.30;;
68310;SDS011;55157;51.036;17.058;2022-10-12T14:21:05;20.80;;;3.40;;
68310;SDS011;55157;51.036;17.058;2022-10-12T14:23:31;11.57;;;3.58;;
68310;SDS011;55157;51.036;17.058;2022-10-12T14:25:56;12.50;;;3.83;;
68310;SDS011;55157;51.036;17.058;2022-10-12T14:28:25;14.07;;;2.97;;
68310;SDS011;55157;51.036;17.058;2022-10-12T14:30:53;10.10;;;3.38;;
68310;SDS011;55157;51.036;17.058;2022-10-12T14:33:20;9.88;;;2.83;;